Weather at John F Kennedy International Airport

Public forecast

Using degrees Fahrenheit for public forecast. Weather courtesy of forecast.io.

Current aviation weather report (METAR) for John F Kennedy International Airport

Retrieved 2021/07/28 22:51 UTC (34 minutes ago):

KJFK 282251Z 16006KT 10SM SCT065 23/18 A3000 RMK AO2 SLP158 T02330178

Aviation forecast (TAF) for John F Kennedy International Airport

Retrieved 2021/07/28 18:30 UTC (5 hours ago):

TAF KJFK 281726Z 2818/2924 03011G16KT P6SM SCT035 SCT250 FM282000 14010KT P6SM SCT050 FM290800 15006KT 6SM BR SCT007 BKN015 FM291400 15007KT 6SM BR VCSH BKN035 FM291800 16009KT P6SM OVC015 PROB30 2918/2922 3SM TSRA BKN015CB